Time;durP1;ratioP1;P1;durP2;ratioP2;P2;SDS_P1;SDS_P2;PMS_P1;PMS_P2;Temp;Humidity;BMP_temperature;BMP_pressure;BME280_temperature;BME280_humidity;BME280_pressure;Samples;Min_cycle;Max_cycle;Signal;HPM_P1;HPM_P2
2022/08/04 00:02:07;;;;;;;3.15;1.33;;;;;;;17.11;70.96;100271.66;5051696;28;20436;-72
2022/08/04 00:04:54;;;;;;;5.43;1.30;;;;;;;17.12;71.20;100276.06;5056829;28;20572;-73
2022/08/04 00:07:38;;;;;;;6.07;1.30;;;;;;;17.13;70.89;100266.66;5060481;28;20096;-73
2022/08/04 00:10:05;;;;;;;;;;;;;;;17.15;71.10;100280.16;5076512;28;20028;-73
2022/08/04 00:12:33;;;;;;;2.88;1.00;;;;;;;17.22;71.21;100275.81;5061543;28;19912;-74
2022/08/04 00:15:01;;;;;;;6.07;1.15;;;;;;;17.20;71.31;100267.03;5060884;28;20047;-73
2022/08/04 00:17:48;;;;;;;3.45;0.90;;;;;;;17.21;71.58;100267.84;5079730;28;20013;-74
2022/08/04 00:20:17;;;;;;;3.10;1.17;;;;;;;17.19;71.75;100273.69;5076195;28;20260;-71
2022/08/04 00:22:45;;;;;;;3.35;1.05;;;;;;;17.17;71.89;100280.63;5057401;28;20121;-73
2022/08/04 00:25:10;;;;;;;6.72;1.50;;;;;;;17.11;72.02;100274.41;5057096;28;20029;-73
2022/08/04 00:27:37;;;;;;;3.80;1.00;;;;;;;17.11;71.60;100279.94;5043601;28;20059;-72
2022/08/04 00:30:04;;;;;;;8.07;2.20;;;;;;;17.12;71.92;100264.22;5055630;28;20031;-72
2022/08/04 00:32:30;;;;;;;3.10;0.70;;;;;;;17.13;71.96;100265.81;5055445;28;20112;-73
2022/08/04 00:34:57;;;;;;;4.75;0.90;;;;;;;17.11;71.95;100260.59;5076093;28;20032;-73
2022/08/04 00:37:23;;;;;;;5.65;1.45;;;;;;;17.10;71.84;100272.81;5073777;28;20024;-73
2022/08/04 00:39:52;;;;;;;3.75;1.10;;;;;;;17.09;72.28;100273.94;5055497;28;20094;-71
2022/08/04 00:42:43;;;;;;;9.20;1.55;;;;;;;17.09;71.76;100276.69;5071384;28;20055;-74
2022/08/04 00:45:29;;;;;;;4.72;1.20;;;;;;;17.01;72.17;100269.16;5053932;28;20005;-72
2022/08/04 00:48:29;;;;;;;4.07;0.98;;;;;;;16.93;72.13;100271.53;5057099;28;20084;-72
2022/08/04 00:51:19;;;;;;;3.28;1.23;;;;;;;16.86;72.60;100265.59;5056660;28;20016;-73
2022/08/04 00:54:05;;;;;;;15.98;1.45;;;;;;;16.85;72.77;100272.25;5075305;28;20020;-73
2022/08/04 00:57:01;;;;;;;7.10;1.27;;;;;;;16.82;72.75;100261.84;5073666;28;20070;-73
2022/08/04 01:00:00;;;;;;;8.60;1.30;;;;;;;16.74;73.10;100259.81;5055907;28;20036;-72
2022/08/04 01:02:47;;;;;;;5.22;1.20;;;;;;;16.73;72.95;100258.16;5055580;28;20021;-71
2022/08/04 01:05:13;;;;;;;4.95;1.40;;;;;;;16.64;73.55;100258.09;5073835;28;20024;-72
2022/08/04 01:07:48;;;;;;;7.32;1.23;;;;;;;16.54;73.52;100261.91;5057817;28;20029;-72
2022/08/04 01:10:35;;;;;;;7.50;1.50;;;;;;;16.35;74.51;100263.97;5069160;28;20040;-72
2022/08/04 01:13:07;;;;;;;5.13;1.48;;;;;;;16.15;74.98;100271.56;5053021;28;20017;-72
2022/08/04 01:15:58;;;;;;;5.90;1.30;;;;;;;15.95;76.05;100266.47;5056712;28;20092;-72
2022/08/04 01:18:38;;;;;;;4.80;1.00;;;;;;;15.70;76.77;100252.81;5052691;28;20039;-71
2022/08/04 01:21:27;;;;;;;5.10;1.40;;;;;;;15.57;77.24;100263.84;5051859;28;20037;-71
2022/08/04 01:24:13;;;;;;;7.40;1.02;;;;;;;15.45;77.86;100267.06;5055700;28;20032;-72
2022/08/04 01:27:08;;;;;;;8.63;1.33;;;;;;;15.31;78.71;100264.28;5073815;28;20029;-70
2022/08/04 01:29:50;;;;;;;11.38;1.83;;;;;;;15.19;79.42;100264.75;5074748;28;20035;-72
2022/08/04 01:32:19;;;;;;;10.13;1.45;;;;;;;15.10;79.78;100270.13;5075734;28;20032;-73
2022/08/04 01:34:51;;;;;;;10.98;2.35;;;;;;;14.98;80.49;100261.50;5057498;28;20051;-71
2022/08/04 01:37:36;;;;;;;11.77;1.80;;;;;;;14.94;80.48;100263.25;5054475;28;20012;-71
2022/08/04 01:40:05;;;;;;;3.00;0.90;;;;;;;14.86;81.23;100272.16;5055266;28;20028;-70
2022/08/04 01:42:33;;;;;;;4.40;1.90;;;;;;;14.75;81.47;100269.56;5056736;28;20036;-71
2022/08/04 01:45:06;;;;;;;5.90;1.85;;;;;;;14.62;81.98;100251.06;5052308;28;20075;-71
2022/08/04 01:47:34;;;;;;;11.32;1.40;;;;;;;14.58;82.29;100263.72;5069091;28;20042;-70
2022/08/04 01:50:20;;;;;;;4.95;1.45;;;;;;;14.47;82.28;100257.53;5054617;28;20020;-71
2022/08/04 01:52:47;;;;;;;6.78;1.33;;;;;;;14.41;83.07;100262.31;5071847;28;20040;-71
2022/08/04 01:55:14;;;;;;;4.10;1.30;;;;;;;14.33;83.12;100257.47;5068530;28;20041;-71
2022/08/04 01:57:48;;;;;;;8.60;1.70;;;;;;;14.26;83.76;100257.00;5040604;28;20037;-70
2022/08/04 02:00:23;;;;;;;8.02;1.38;;;;;;;14.20;84.10;100252.69;5044913;28;20032;-70
2022/08/04 02:02:50;;;;;;;5.85;1.40;;;;;;;14.10;84.20;100242.63;5067098;28;20737;-70
2022/08/04 02:05:21;;;;;;;5.13;1.52;;;;;;;14.03;84.77;100251.25;5055202;28;20026;-70
2022/08/04 02:08:19;;;;;;;13.23;1.52;;;;;;;14.00;85.33;100249.06;5065317;28;20025;-70
2022/08/04 02:10:57;;;;;;;6.47;1.42;;;;;;;13.95;85.54;100246.38;5068274;28;20095;-71
2022/08/04 02:14:04;;;;;;;8.68;1.60;;;;;;;13.93;85.92;100251.34;5057581;28;20021;-71
2022/08/04 02:16:39;;;;;;;6.07;1.30;;;;;;;13.95;86.85;100251.88;5050203;28;20020;-70
2022/08/04 02:19:26;;;;;;;4.97;1.10;;;;;;;13.90;85.97;100250.03;5074332;28;20027;-71
2022/08/04 02:21:59;;;;;;;4.85;1.42;;;;;;;13.86;86.45;100242.66;5049636;28;20469;-70
2022/08/04 02:24:29;;;;;;;3.30;1.38;;;;;;;13.84;87.02;100247.63;5051750;28;20120;-70
2022/08/04 02:26:55;;;;;;;8.02;1.67;;;;;;;13.79;87.02;100249.31;5069495;28;20024;-70
2022/08/04 02:29:41;;;;;;;5.30;1.20;;;;;;;13.78;87.16;100252.34;5053321;28;20455;-71
2022/08/04 02:32:14;;;;;;;8.80;1.35;;;;;;;13.73;86.80;100242.22;5070001;28;20056;-73
2022/08/04 02:35:02;;;;;;;4.35;1.20;;;;;;;13.71;87.11;100249.13;5063761;28;20056;-72
2022/08/04 02:37:31;;;;;;;4.57;1.25;;;;;;;13.68;87.02;100250.53;5069630;28;20020;-72
2022/08/04 02:39:59;;;;;;;5.55;1.30;;;;;;;13.63;87.27;100253.34;5056708;28;20025;-72
2022/08/04 02:42:27;;;;;;;4.47;1.20;;;;;;;13.53;87.19;100246.00;5059074;28;20040;-72
2022/08/04 02:44:57;;;;;;;3.85;1.25;;;;;;;13.58;86.98;100253.38;5063618;28;20048;-71
2022/08/04 02:47:24;;;;;;;2.85;0.90;;;;;;;13.53;87.04;100256.19;5069477;28;20072;-69
2022/08/04 02:49:51;;;;;;;4.53;1.63;;;;;;;13.53;87.72;100250.69;5053727;28;20029;-69
2022/08/04 02:52:18;;;;;;;4.72;1.10;;;;;;;13.50;87.24;100245.78;5054024;28;20056;-71
2022/08/04 02:54:47;;;;;;;5.57;1.40;;;;;;;13.49;87.59;100241.38;5054772;28;20510;-72
2022/08/04 02:57:14;;;;;;;6.88;1.02;;;;;;;13.49;87.83;100246.88;5057769;28;20028;-71
2022/08/04 02:59:58;;;;;;;5.63;1.48;;;;;;;13.47;87.40;100246.38;5036219;28;20047;-71
2022/08/04 03:02:53;;;;;;;3.67;1.20;;;;;;;13.42;87.64;100234.31;5061907;28;20032;-71
2022/08/04 03:05:24;;;;;;;5.90;1.10;;;;;;;13.50;87.57;100240.28;5048159;28;20023;-72
2022/08/04 03:08:34;;;;;;;5.13;1.45;;;;;;;13.55;87.51;100249.28;5070069;28;20035;-71
2022/08/04 03:11:21;;;;;;;8.02;1.25;;;;;;;13.60;87.27;100242.94;5066848;28;20074;-71
2022/08/04 03:14:26;;;;;;;4.22;0.88;;;;;;;13.61;87.24;100241.81;5052773;28;20029;-71
2022/08/04 03:17:10;;;;;;;3.83;1.38;;;;;;;13.59;86.88;100244.03;5057591;28;20048;-71
2022/08/04 03:20:27;;;;;;;3.20;1.25;;;;;;;13.49;86.86;100244.13;5050283;28;20033;-70
2022/08/04 03:23:03;;;;;;;4.13;1.27;;;;;;;13.40;87.56;100242.03;5048979;28;20600;-72
2022/08/04 03:25:40;;;;;;;3.90;1.20;;;;;;;13.35;87.54;100244.81;5073277;28;20091;-72
2022/08/04 03:28:33;;;;;;;8.20;1.40;;;;;;;13.27;88.06;100248.16;5058400;28;20032;-70
2022/08/04 03:31:20;;;;;;;4.70;1.13;;;;;;;13.20;88.47;100242.16;5074396;28;20029;-73
2022/08/04 03:33:59;;;;;;;10.57;1.50;;;;;;;13.15;89.10;100239.47;5057091;28;20428;-72
2022/08/04 03:36:53;;;;;;;6.00;1.35;;;;;;;13.10;89.65;100243.09;5057662;28;20028;-71
2022/08/04 03:39:21;;;;;;;7.32;1.33;;;;;;;13.04;89.15;100245.06;5056163;28;20052;-70
2022/08/04 03:41:55;;;;;;;8.90;1.50;;;;;;;12.99;89.47;100236.84;5047615;28;20040;-72
2022/08/04 03:44:39;;;;;;;8.02;1.38;;;;;;;12.94;89.70;100245.13;5057711;28;20029;-73
2022/08/04 03:47:07;;;;;;;6.28;1.50;;;;;;;12.91;89.89;100245.72;5054685;28;20060;-71
2022/08/04 03:49:36;;;;;;;4.18;1.65;;;;;;;12.86;89.66;100252.03;5072477;28;20028;-71
2022/08/04 03:55:18;;;;;;;12.07;1.88;;;;;;;12.79;90.76;100258.97;5068464;28;20083;-72
2022/08/04 03:57:56;;;;;;;5.60;1.70;;;;;;;12.73;91.14;100260.91;5050179;28;20096;-72
2022/08/04 04:00:47;;;;;;;5.70;1.33;;;;;;;12.65;91.18;100259.59;5071081;28;20428;-71
2022/08/04 04:03:25;;;;;;;5.93;1.83;;;;;;;12.61;91.03;100264.00;5057033;28;20020;-70
2022/08/04 04:05:56;;;;;;;7.25;1.70;;;;;;;12.55;91.83;100265.94;5053016;28;20031;-71
2022/08/04 04:08:59;;;;;;;3.90;1.60;;;;;;;12.48;92.07;100265.44;5079825;28;20036;-71
2022/08/04 04:11:39;;;;;;;7.72;1.88;;;;;;;12.43;92.25;100264.69;5056354;28;20124;-71
2022/08/04 04:14:38;;;;;;;8.05;1.60;;;;;;;12.42;92.04;100268.50;5063622;28;20032;-71
2022/08/04 04:17:22;;;;;;;13.23;2.05;;;;;;;12.39;92.69;100262.47;5062555;28;20127;-71
2022/08/04 04:20:03;;;;;;;15.27;4.10;;;;;;;12.38;93.15;100268.25;5063412;28;20112;-70
2022/08/04 04:22:50;;;;;;;5.30;1.70;;;;;;;12.35;93.08;100261.41;5069025;28;20297;-71
2022/08/04 04:25:22;;;;;;;6.82;1.45;;;;;;;12.35;93.72;100266.06;5070785;28;20031;-71
2022/08/04 04:28:26;;;;;;;7.85;1.90;;;;;;;12.34;94.11;100273.47;5064606;28;20023;-71
2022/08/04 04:31:14;;;;;;;6.70;1.60;;;;;;;12.34;93.88;100265.25;5050222;28;20116;-71
2022/08/04 04:34:07;;;;;;;5.88;1.73;;;;;;;12.30;94.03;100264.19;5063452;28;20029;-72
2022/08/04 04:36:57;;;;;;;5.05;2.00;;;;;;;12.27;93.70;100270.22;5070216;28;20083;-71
2022/08/04 04:39:50;;;;;;;5.10;1.65;;;;;;;12.24;94.25;100259.81;5051943;28;20037;-72
2022/08/04 04:42:28;;;;;;;7.68;1.48;;;;;;;12.25;93.73;100266.97;5051040;28;20033;-73
2022/08/04 04:45:24;;;;;;;7.40;2.05;;;;;;;12.23;94.34;100275.44;5057657;28;20207;-72
2022/08/04 04:48:06;;;;;;;3.90;1.40;;;;;;;12.28;94.35;100279.25;5051060;28;20024;-72
2022/08/04 04:50:46;;;;;;;7.28;1.70;;;;;;;12.28;94.89;100271.88;5056271;28;20059;-70
2022/08/04 04:53:32;;;;;;;6.55;1.67;;;;;;;12.29;94.58;100278.97;5053385;28;20056;-72
2022/08/04 04:56:34;;;;;;;7.18;1.70;;;;;;;12.30;94.92;100269.66;5061069;28;20108;-72
2022/08/04 04:59:02;;;;;;;8.77;1.92;;;;;;;12.31;94.65;100276.78;5074158;28;20044;-71
2022/08/04 05:01:46;;;;;;;6.32;1.60;;;;;;;12.32;94.55;100272.94;5073826;28;20028;-72
2022/08/04 05:04:39;;;;;;;10.80;1.83;;;;;;;12.34;95.04;100280.91;5055932;28;20362;-71
2022/08/04 05:07:43;;;;;;;10.23;1.73;;;;;;;12.31;94.54;100268.56;5075625;28;20032;-72
2022/08/04 05:10:34;;;;;;;8.15;1.95;;;;;;;12.37;95.28;100281.16;5071737;28;20064;-72
2022/08/04 05:13:40;;;;;;;6.07;1.50;;;;;;;12.43;95.00;100281.94;5070298;28;20031;-73
2022/08/04 05:16:30;;;;;;;6.63;1.77;;;;;;;12.46;95.10;100286.84;5017768;28;20012;-71
2022/08/04 05:19:07;;;;;;;8.68;1.92;;;;;;;12.52;94.51;100288.47;5071332;28;20027;-71
2022/08/04 05:21:36;;;;;;;6.10;1.52;;;;;;;12.59;94.73;100293.66;5053221;28;20055;-72
2022/08/04 05:24:07;;;;;;;4.40;1.25;;;;;;;12.70;94.99;100295.25;5054154;28;20127;-74
2022/08/04 05:26:38;;;;;;;6.63;1.65;;;;;;;12.79;94.73;100298.22;5068153;28;20036;-72
2022/08/04 05:29:10;;;;;;;6.88;1.90;;;;;;;12.92;94.13;100302.22;5062634;28;20051;-71
2022/08/04 05:31:41;;;;;;;2.85;1.40;;;;;;;13.03;93.45;100303.00;5061800;28;20094;-70
2022/08/04 05:34:19;;;;;;;2.58;1.25;;;;;;;13.15;93.44;100299.88;5063910;28;20024;-71
2022/08/04 05:36:47;;;;;;;5.90;1.60;;;;;;;13.26;92.98;100306.94;5041966;28;20115;-72
2022/08/04 05:39:20;;;;;;;5.32;1.52;;;;;;;13.35;92.44;100307.97;5070459;28;20128;-72
2022/08/04 05:41:48;;;;;;;4.68;1.42;;;;;;;13.48;91.76;100303.75;5052400;28;20029;-72
2022/08/04 05:44:19;;;;;;;5.20;1.88;;;;;;;13.61;91.32;100302.28;5056018;28;20032;-72
2022/08/04 05:46:48;;;;;;;11.38;2.58;;;;;;;13.72;90.43;100300.22;5054742;28;20056;-73
2022/08/04 05:49:14;;;;;;;4.65;1.52;;;;;;;13.82;90.15;100307.56;5055455;28;20059;-71
2022/08/04 05:51:42;;;;;;;6.72;1.60;;;;;;;13.94;89.62;100313.47;5026770;28;20074;-73
2022/08/04 05:54:09;;;;;;;6.32;1.50;;;;;;;14.01;88.88;100315.88;5037263;28;20029;-73
2022/08/04 05:56:36;;;;;;;5.75;1.55;;;;;;;14.07;88.16;100315.50;5051206;28;20037;-73
2022/08/04 05:59:03;;;;;;;6.75;1.55;;;;;;;14.12;88.23;100323.72;5041390;28;20043;-73
2022/08/04 06:01:30;;;;;;;7.15;1.63;;;;;;;14.21;88.03;100317.59;5050029;28;20023;-71
2022/08/04 06:03:58;;;;;;;6.85;1.75;;;;;;;14.30;87.74;100329.56;5073008;28;21568;-73
2022/08/04 06:06:24;;;;;;;5.80;1.58;;;;;;;14.42;87.52;100329.97;5073043;28;20390;-72
2022/08/04 06:08:50;;;;;;;6.68;1.77;;;;;;;14.56;86.89;100329.22;5050147;28;20131;-71
2022/08/04 06:11:18;;;;;;;8.80;1.70;;;;;;;14.62;85.84;100325.34;5061645;28;20059;-71
2022/08/04 06:13:50;;;;;;;4.65;1.63;;;;;;;14.64;85.64;100323.91;5049499;28;20031;-70
2022/08/04 06:16:19;;;;;;;5.18;1.25;;;;;;;14.73;85.38;100320.53;5046192;28;20024;-70
2022/08/04 06:18:48;;;;;;;6.72;1.38;;;;;;;14.81;84.72;100330.88;5062756;28;20393;-72
2022/08/04 06:21:20;;;;;;;10.85;1.90;;;;;;;14.89;84.29;100318.38;5035096;28;20044;-72
2022/08/04 06:23:47;;;;;;;6.63;1.33;;;;;;;14.94;83.62;100318.31;5063801;28;20033;-72
2022/08/04 06:26:18;;;;;;;14.88;2.15;;;;;;;14.99;83.05;100326.47;5049561;28;20047;-71
2022/08/04 06:28:48;;;;;;;9.93;1.70;;;;;;;15.06;82.95;100329.69;5072544;28;20021;-72
2022/08/04 06:31:30;;;;;;;11.25;2.30;;;;;;;15.19;83.23;100325.34;5056705;28;20088;-72
2022/08/04 06:33:59;;;;;;;1.90;1.10;;;;;;;15.30;82.17;100321.34;5045758;28;20024;-71
2022/08/04 06:36:25;;;;;;;5.88;1.17;;;;;;;15.51;82.03;100338.34;5041744;28;20038;-72
2022/08/04 06:38:52;;;;;;;6.57;1.35;;;;;;;15.64;81.26;100330.41;5056991;28;20028;-71
2022/08/04 06:41:17;;;;;;;7.40;1.77;;;;;;;15.75;80.51;100329.09;5039013;28;20086;-72
2022/08/04 06:43:45;;;;;;;6.78;1.50;;;;;;;15.91;79.93;100342.66;5043814;28;20032;-70
2022/08/04 06:46:11;;;;;;;6.80;1.38;;;;;;;16.07;79.94;100349.50;5022591;28;20029;-71
2022/08/04 06:48:37;;;;;;;6.50;1.48;;;;;;;16.17;79.44;100346.56;5020810;28;20029;-71
2022/08/04 06:51:04;;;;;;;5.10;1.50;;;;;;;16.27;78.95;100342.78;5064397;28;20063;-72
2022/08/04 06:53:30;;;;;;;4.75;1.38;;;;;;;16.47;78.17;100355.34;5053359;28;20056;-72
2022/08/04 06:55:56;;;;;;;3.15;1.35;;;;;;;16.61;78.18;100354.53;5057375;28;20064;-71
2022/08/04 06:58:23;;;;;;;13.15;1.50;;;;;;;16.75;77.61;100358.09;5070312;28;20028;-72
2022/08/04 07:00:49;;;;;;;9.43;1.65;;;;;;;16.91;76.68;100367.69;5031361;28;20088;-72
2022/08/04 07:03:17;;;;;;;5.55;1.42;;;;;;;17.05;76.75;100366.84;5025967;28;20036;-72
2022/08/04 07:05:46;;;;;;;4.82;1.30;;;;;;;17.19;75.90;100373.16;5043376;28;20028;-74
2022/08/04 07:08:12;;;;;;;7.57;1.35;;;;;;;17.26;74.99;100381.81;5060234;28;20813;-71
2022/08/04 07:10:39;;;;;;;5.85;1.23;;;;;;;17.35;74.02;100373.59;5074922;28;20024;-71
2022/08/04 07:13:06;;;;;;;11.40;1.27;;;;;;;17.44;74.30;100381.97;5056809;28;20028;-73
2022/08/04 07:15:32;;;;;;;5.85;1.23;;;;;;;17.47;73.71;100375.81;5027402;28;20087;-74
2022/08/04 07:17:58;;;;;;;3.55;1.30;;;;;;;17.53;74.25;100382.03;5056185;28;20082;-73
2022/08/04 07:20:24;;;;;;;3.90;1.48;;;;;;;17.68;73.79;100384.41;5074672;28;20063;-74
2022/08/04 07:22:51;;;;;;;6.57;0.98;;;;;;;17.86;73.12;100382.59;5038901;28;20029;-70
2022/08/04 07:25:17;;;;;;;5.90;1.10;;;;;;;17.93;72.83;100385.75;5050938;28;20029;-73
2022/08/04 07:27:42;;;;;;;4.22;1.08;;;;;;;17.96;71.82;100379.59;5047308;28;20047;-73
2022/08/04 07:30:09;;;;;;;3.00;1.00;;;;;;;17.99;72.61;100380.91;5043689;28;20097;-71
2022/08/04 07:32:37;;;;;;;4.97;1.02;;;;;;;17.99;71.31;100380.91;5062439;28;20028;-71
2022/08/04 07:35:04;;;;;;;8.65;1.45;;;;;;;17.88;71.10;100383.06;5056261;28;20031;-72
2022/08/04 07:37:30;;;;;;;10.52;1.60;;;;;;;17.94;71.21;100389.31;5059140;28;20031;-73
2022/08/04 07:39:56;;;;;;;5.18;0.90;;;;;;;18.04;70.51;100388.25;5072920;28;20025;-70
2022/08/04 07:42:21;;;;;;;3.50;1.17;;;;;;;18.15;70.89;100386.84;5035086;28;20040;-73
2022/08/04 07:44:58;;;;;;;3.33;0.95;;;;;;;18.31;70.11;100393.59;5051879;28;20690;-71
2022/08/04 07:47:24;;;;;;;5.68;1.08;;;;;;;18.30;69.54;100380.88;5029187;28;20068;-73
2022/08/04 07:49:49;;;;;;;2.13;0.95;;;;;;;18.64;69.79;100373.00;5055956;28;20479;-72
2022/08/04 07:52:15;;;;;;;5.32;1.33;;;;;;;18.83;68.67;100392.91;5051801;28;20039;-72
2022/08/04 07:54:42;;;;;;;8.43;1.13;;;;;;;18.88;67.06;100389.25;5074355;28;20027;-72
2022/08/04 07:57:07;;;;;;;3.75;1.10;;;;;;;18.91;66.88;100394.13;5040759;28;20486;-75
2022/08/04 07:59:34;;;;;;;7.63;1.00;;;;;;;19.00;66.57;100388.59;5054421;28;20044;-75
2022/08/04 08:02:00;;;;;;;10.35;1.35;;;;;;;19.15;65.84;100392.84;5057155;28;20031;-75
2022/08/04 08:04:27;;;;;;;3.78;0.90;;;;;;;19.36;65.65;100396.63;5051122;28;20458;-75
2022/08/04 08:06:53;;;;;;;2.60;1.00;;;;;;;19.50;64.27;100393.66;5044075;28;20059;-75
2022/08/04 08:09:20;;;;;;;4.25;1.40;;;;;;;19.61;64.13;100398.88;5059941;28;20028;-75
2022/08/04 08:11:48;;;;;;;6.45;1.30;;;;;;;20.11;62.62;100405.84;5067373;28;20028;-76
2022/08/04 08:14:18;;;;;;;3.97;1.30;;;;;;;20.67;61.89;100401.06;5073796;28;20028;-75
2022/08/04 08:16:44;;;;;;;3.25;1.02;;;;;;;21.31;59.75;100401.16;5057067;28;20028;-76
2022/08/04 08:19:10;;;;;;;7.53;1.80;;;;;;;21.52;57.87;100403.94;5045821;28;20537;-75
2022/08/04 08:21:36;;;;;;;6.05;1.60;;;;;;;21.67;57.28;100408.88;5059566;28;20032;-75
2022/08/04 08:24:02;;;;;;;6.82;1.92;;;;;;;21.64;57.50;100409.56;5067932;28;20511;-76
2022/08/04 08:26:27;;;;;;;5.32;1.17;;;;;;;21.57;57.18;100401.75;5056685;28;20036;-74
2022/08/04 08:28:53;;;;;;;5.25;1.40;;;;;;;21.37;56.50;100400.59;5070475;28;20385;-75
2022/08/04 08:31:19;;;;;;;9.07;1.27;;;;;;;21.41;56.71;100395.97;5053947;28;20400;-76
2022/08/04 08:33:45;;;;;;;2.30;0.93;;;;;;;21.67;56.97;100403.31;5048321;28;20033;-74
2022/08/04 08:36:17;;;;;;;9.48;1.60;;;;;;;21.67;56.03;100408.03;5039754;28;20047;-75
2022/08/04 08:38:59;;;;;;;1.60;0.85;;;;;;;21.52;57.32;100406.72;5057525;28;20035;-75
2022/08/04 08:41:37;;;;;;;3.65;0.93;;;;;;;21.43;56.73;100410.34;5069156;28;20474;-75
2022/08/04 08:44:10;;;;;;;5.72;1.27;;;;;;;21.48;56.54;100414.06;5073011;28;20062;-75
2022/08/04 08:46:35;;;;;;;1.95;0.82;;;;;;;21.59;56.57;100410.56;5050404;28;20033;-75
2022/08/04 08:49:13;;;;;;;5.28;1.05;;;;;;;22.05;56.28;100407.84;5073815;28;20031;-75
2022/08/04 08:52:03;;;;;;;3.47;1.30;;;;;;;22.30;54.40;100407.88;5054401;28;20091;-74
2022/08/04 08:54:54;;;;;;;3.42;1.00;;;;;;;22.21;55.21;100410.78;5048626;28;20032;-76
2022/08/04 08:57:41;;;;;;;4.75;1.30;;;;;;;22.16;54.52;100407.41;5071607;28;20037;-75
2022/08/04 09:00:25;;;;;;;9.20;1.80;;;;;;;22.10;55.07;100404.81;5072373;28;20059;-74
2022/08/04 09:02:57;;;;;;;6.38;1.70;;;;;;;22.17;54.64;100406.25;5058217;28;20059;-74
2022/08/04 09:05:44;;;;;;;4.53;1.20;;;;;;;22.37;54.32;100421.25;5071544;28;20032;-74
2022/08/04 09:08:42;;;;;;;2.40;0.85;;;;;;;22.59;54.34;100420.00;5056380;28;20498;-75
2022/08/04 09:11:14;;;;;;;2.75;0.90;;;;;;;22.84;52.34;100420.81;5070868;28;20040;-75
2022/08/04 09:13:53;;;;;;;2.17;1.10;;;;;;;23.02;51.04;100421.38;5070359;28;20021;-75
2022/08/04 09:16:31;;;;;;;3.55;1.00;;;;;;;23.07;50.04;100421.16;5074447;28;20074;-75
2022/08/04 09:19:02;;;;;;;1.50;0.65;;;;;;;23.32;51.59;100421.13;5052999;28;20028;-75
2022/08/04 09:21:57;;;;;;;4.35;1.05;;;;;;;23.66;50.42;100422.50;5074987;28;20035;-75
2022/08/04 09:24:38;;;;;;;0.82;0.50;;;;;;;24.20;48.59;100435.19;5057671;28;20032;-75
2022/08/04 09:27:53;;;;;;;2.38;0.85;;;;;;;24.72;48.62;100426.91;5076283;28;20027;-77
2022/08/04 09:30:22;;;;;;;3.22;0.73;;;;;;;24.88;47.01;100436.13;5053715;28;20066;-76
2022/08/04 09:33:07;;;;;;;0.52;0.40;;;;;;;24.71;44.20;100425.31;5071521;28;20021;-76
2022/08/04 09:36:00;;;;;;;0.98;0.43;;;;;;;24.61;43.56;100431.44;5054234;28;20052;-76
2022/08/04 09:38:48;;;;;;;1.95;0.73;;;;;;;25.00;43.82;100431.56;5058211;28;20037;-75
2022/08/04 09:41:59;;;;;;;0.82;0.50;;;;;;;25.40;43.50;100436.09;5073980;28;20535;-75
2022/08/04 09:44:38;;;;;;;2.63;0.60;;;;;;;25.64;42.52;100445.38;5071151;28;20028;-75
2022/08/04 09:47:30;;;;;;;0.68;0.40;;;;;;;25.85;42.19;100431.81;5054365;28;20823;-74
2022/08/04 09:50:15;;;;;;;1.48;0.20;;;;;;;25.87;41.89;100435.03;5072768;28;20062;-74
2022/08/04 09:52:42;;;;;;;;;;;;;;;25.82;40.20;100435.34;5056701;28;20039;-75
2022/08/04 09:55:19;;;;;;;2.92;0.50;;;;;;;25.83;41.49;100428.56;5068162;28;19951;-74
2022/08/04 09:58:01;;;;;;;0.30;0.30;;;;;;;26.22;41.18;100438.91;5069539;28;20501;-75
2022/08/04 10:00:42;;;;;;;1.55;0.35;;;;;;;26.41;39.89;100435.25;5056231;28;20033;-76
2022/08/04 10:03:11;;;;;;;0.57;0.32;;;;;;;26.52;39.78;100441.84;5075003;28;20031;-74
2022/08/04 10:05:56;;;;;;;0.95;0.40;;;;;;;26.80;39.91;100440.72;5053849;28;20030;-76
2022/08/04 10:08:27;;;;;;;0.82;0.40;;;;;;;27.12;39.19;100449.63;5068564;28;20043;-75
2022/08/04 10:11:13;;;;;;;2.05;0.50;;;;;;;27.48;40.02;100446.53;5070487;28;20024;-75
2022/08/04 10:14:04;;;;;;;2.38;0.47;;;;;;;28.15;39.01;100433.69;5043622;28;20047;-74
2022/08/04 10:16:44;;;;;;;2.20;0.70;;;;;;;28.91;35.44;100446.41;5066804;28;20073;-74
2022/08/04 10:19:33;;;;;;;1.65;0.43;;;;;;;29.63;34.84;100451.66;5072378;28;20103;-75
2022/08/04 10:22:20;;;;;;;1.83;0.63;;;;;;;29.50;33.39;100449.19;5073766;28;20044;-76
2022/08/04 10:24:48;;;;;;;0.98;0.60;;;;;;;29.36;33.75;100447.09;5072804;28;20046;-75
2022/08/04 10:27:22;;;;;;;4.15;1.23;;;;;;;29.03;33.49;100460.16;5054000;28;20040;-75
2022/08/04 10:29:48;;;;;;;2.60;0.60;;;;;;;28.99;34.75;100456.50;5078580;28;20028;-76
2022/08/04 10:32:28;;;;;;;3.03;0.60;;;;;;;29.31;34.95;100453.13;5054496;28;20024;-75
2022/08/04 10:35:18;;;;;;;1.55;0.80;;;;;;;29.66;34.08;100450.84;5075418;28;20118;-76
2022/08/04 10:38:06;;;;;;;3.25;0.60;;;;;;;29.93;34.08;100454.19;5061839;28;20032;-74
2022/08/04 10:40:44;;;;;;;1.77;0.82;;;;;;;30.08;32.28;100455.88;5073282;28;20040;-75
2022/08/04 10:43:45;;;;;;;1.75;0.88;;;;;;;29.92;32.60;100452.59;5074146;28;20472;-75
2022/08/04 10:46:16;;;;;;;1.60;0.52;;;;;;;29.88;32.93;100451.78;5075197;28;20032;-76
2022/08/04 10:48:58;;;;;;;2.03;0.65;;;;;;;29.72;33.47;100455.72;5078103;28;20020;-75
2022/08/04 10:51:47;;;;;;;2.67;0.80;;;;;;;29.33;33.27;100461.97;5073677;28;20418;-75
2022/08/04 10:54:20;;;;;;;0.65;0.35;;;;;;;28.47;34.77;100450.03;5038457;28;20494;-74
2022/08/04 10:57:02;;;;;;;0.98;0.40;;;;;;;27.67;35.37;100452.00;5060602;28;20043;-74
2022/08/04 11:00:19;;;;;;;1.80;0.60;;;;;;;26.80;36.06;100452.75;5074623;28;20067;-75
2022/08/04 11:03:02;;;;;;;7.55;1.05;;;;;;;25.98;36.98;100468.03;4964529;28;20082;-75
2022/08/04 11:05:34;;;;;;;2.85;0.70;;;;;;;25.57;37.74;100465.66;5061489;28;20040;-75
2022/08/04 11:08:10;;;;;;;11.55;0.68;;;;;;;25.39;38.38;100465.25;5075093;28;20025;-74
2022/08/04 11:10:43;;;;;;;1.17;0.57;;;;;;;25.37;38.26;100457.22;5046857;28;20044;-74
2022/08/04 11:13:11;;;;;;;15.07;0.80;;;;;;;25.58;37.73;100470.03;5069006;28;20029;-74
2022/08/04 11:15:43;;;;;;;2.22;0.80;;;;;;;25.57;37.41;100462.84;5065866;28;20375;-75
2022/08/04 11:18:17;;;;;;;2.88;0.63;;;;;;;25.58;37.54;100461.66;5076899;28;20036;-75
2022/08/04 11:21:12;;;;;;;1.20;0.80;;;;;;;25.75;37.31;100466.00;5054644;28;20016;-75
2022/08/04 11:23:43;;;;;;;;;;;;;;;26.16;37.44;100480.44;5056337;28;20013;-75
2022/08/04 11:26:18;;;;;;;2.00;0.60;;;;;;;26.85;35.79;100459.22;5075689;28;20027;-75
2022/08/04 11:29:27;;;;;;;2.83;0.50;;;;;;;27.02;35.08;100467.13;5069753;28;20125;-74
2022/08/04 11:31:58;;;;;;;0.85;0.38;;;;;;;27.07;34.56;100468.78;5029049;28;20375;-75
2022/08/04 11:34:26;;;;;;;1.55;0.30;;;;;;;27.95;33.92;100476.00;5077446;28;20028;-75
2022/08/04 11:37:13;;;;;;;4.80;0.50;;;;;;;29.04;31.18;100472.22;5077656;28;20090;-75
2022/08/04 11:39:52;;;;;;;2.58;0.63;;;;;;;29.19;30.13;100468.31;5074188;28;20051;-75
2022/08/04 11:42:26;;;;;;;4.97;0.50;;;;;;;29.64;30.29;100476.59;5056152;28;20032;-75
2022/08/04 11:45:05;;;;;;;4.40;0.70;;;;;;;30.63;28.01;100482.13;5051828;28;20025;-74
2022/08/04 11:47:59;;;;;;;1.38;0.55;;;;;;;30.55;27.48;100488.97;5075027;28;20398;-76
2022/08/04 11:50:37;;;;;;;1.42;0.50;;;;;;;30.37;28.11;100484.09;5063671;28;20127;-74
2022/08/04 11:53:03;;;;;;;2.50;0.80;;;;;;;30.28;28.49;100492.16;5075974;28;20047;-75
2022/08/04 11:55:31;;;;;;;0.75;0.40;;;;;;;30.32;29.58;100487.31;5075359;28;20025;-74
2022/08/04 11:57:57;;;;;;;1.15;0.70;;;;;;;30.84;28.82;100484.16;5056758;28;20412;-75
2022/08/04 12:00:26;;;;;;;1.50;0.60;;;;;;;31.87;26.56;100480.72;5042848;28;20066;-76
2022/08/04 12:02:58;;;;;;;2.05;0.60;;;;;;;32.83;25.37;100492.66;5077352;28;20024;-75
2022/08/04 12:05:31;;;;;;;1.02;0.55;;;;;;;31.66;27.50;100490.91;5059978;28;20033;-75
2022/08/04 12:08:16;;;;;;;7.18;0.80;;;;;;;30.39;27.92;100486.53;5070773;28;20033;-75
2022/08/04 12:11:26;;;;;;;1.02;0.40;;;;;;;28.87;30.17;100490.63;5067382;28;20465;-75
2022/08/04 12:14:11;;;;;;;2.15;0.50;;;;;;;28.64;31.20;100483.19;5073690;28;20510;-76
2022/08/04 12:17:17;;;;;;;;;;;;;;;;;;;;;